sensor_id;sensor_type;location;lat;lon;timestamp;P1;P2;P0
76784;PMS7003;66893;44.316;0.092;2023-04-29T00:00:04;3.50;3.50;3.00
76784;PMS7003;66893;44.316;0.092;2023-04-29T00:02:33;4.00;4.00;4.00
76784;PMS7003;66893;44.316;0.092;2023-04-29T00:04:59;4.25;4.25;4.00
76784;PMS7003;66893;44.316;0.092;2023-04-29T00:07:25;4.00;4.00;3.00
76784;PMS7003;66893;44.316;0.092;2023-04-29T00:09:50;4.25;3.75;3.25
76784;PMS7003;66893;44.316;0.092;2023-04-29T00:12:16;6.00;5.75;5.00
76784;PMS7003;66893;44.316;0.092;2023-04-29T00:14:42;6.50;6.50;5.00
76784;PMS7003;66893;44.316;0.092;2023-04-29T00:17:08;5.00;5.00;4.00
76784;PMS7003;66893;44.316;0.092;2023-04-29T00:19:33;6.00;4.00;3.00
76784;PMS7003;66893;44.316;0.092;2023-04-29T00:21:59;5.25;5.25;4.00
76784;PMS7003;66893;44.316;0.092;2023-04-29T00:24:25;7.50;5.00;4.00
76784;PMS7003;66893;44.316;0.092;2023-04-29T00:26:51;5.00;5.00;4.00
76784;PMS7003;66893;44.316;0.092;2023-04-29T00:29:16;4.75;4.75;4.00
76784;PMS7003;66893;44.316;0.092;2023-04-29T00:31:43;5.00;5.00;4.25
76784;PMS7003;66893;44.316;0.092;2023-04-29T00:34:08;5.00;5.00;4.00
76784;PMS7003;66893;44.316;0.092;2023-04-29T00:36:34;6.50;5.00;4.00
76784;PMS7003;66893;44.316;0.092;2023-04-29T00:39:00;5.00;5.00;4.50
76784;PMS7003;66893;44.316;0.092;2023-04-29T00:41:26;6.50;4.25;3.00
76784;PMS7003;66893;44.316;0.092;2023-04-29T00:43:51;7.00;7.00;5.00
76784;PMS7003;66893;44.316;0.092;2023-04-29T00:46:17;6.00;6.00;4.25
76784;PMS7003;66893;44.316;0.092;2023-04-29T00:48:42;5.00;5.00;3.50
76784;PMS7003;66893;44.316;0.092;2023-04-29T00:51:08;6.50;6.00;5.00
76784;PMS7003;66893;44.316;0.092;2023-04-29T00:53:34;5.25;5.25;5.00
76784;PMS7003;66893;44.316;0.092;2023-04-29T00:56:00;6.50;6.50;4.25
76784;PMS7003;66893;44.316;0.092;2023-04-29T00:58:28;6.25;5.00;4.00
76784;PMS7003;66893;44.316;0.092;2023-04-29T01:01:00;9.50;7.00;5.50
76784;PMS7003;66893;44.316;0.092;2023-04-29T01:03:31;5.25;5.25;5.25
76784;PMS7003;66893;44.316;0.092;2023-04-29T01:06:02;6.00;5.00;4.00
76784;PMS7003;66893;44.316;0.092;2023-04-29T01:11:29;8.75;7.25;6.00
76784;PMS7003;66893;44.316;0.092;2023-04-29T01:14:00;11.00;8.50;6.75
76784;PMS7003;66893;44.316;0.092;2023-04-29T01:19:21;12.25;9.25;7.50
76784;PMS7003;66893;44.316;0.092;2023-04-29T01:22:09;9.75;9.00;7.00
76784;PMS7003;66893;44.316;0.092;2023-04-29T01:24:35;8.00;8.00;7.00
76784;PMS7003;66893;44.316;0.092;2023-04-29T01:27:07;10.00;8.50;7.00
76784;PMS7003;66893;44.316;0.092;2023-04-29T01:30:01;9.00;9.00;7.00
76784;PMS7003;66893;44.316;0.092;2023-04-29T01:32:42;9.00;9.00;7.00
76784;PMS7003;66893;44.316;0.092;2023-04-29T01:35:48;14.25;9.00;7.25
76784;PMS7003;66893;44.316;0.092;2023-04-29T01:43:39;8.00;8.00;6.50
76784;PMS7003;66893;44.316;0.092;2023-04-29T01:46:07;11.25;10.75;7.50
76784;PMS7003;66893;44.316;0.092;2023-04-29T01:48:34;12.75;10.50;8.75
76784;PMS7003;66893;44.316;0.092;2023-04-29T01:51:00;11.00;9.25;7.25
76784;PMS7003;66893;44.316;0.092;2023-04-29T01:53:26;11.50;10.50;8.75
76784;PMS7003;66893;44.316;0.092;2023-04-29T01:55:52;9.00;9.00;7.00
76784;PMS7003;66893;44.316;0.092;2023-04-29T01:58:17;9.75;9.75;8.00
76784;PMS7003;66893;44.316;0.092;2023-04-29T02:00:42;13.75;11.75;8.50
76784;PMS7003;66893;44.316;0.092;2023-04-29T02:03:08;11.25;10.50;8.25
76784;PMS7003;66893;44.316;0.092;2023-04-29T02:05:34;12.50;10.75;8.75
76784;PMS7003;66893;44.316;0.092;2023-04-29T02:08:00;9.50;7.25;6.00
76784;PMS7003;66893;44.316;0.092;2023-04-29T02:10:25;9.25;7.75;7.00
76784;PMS7003;66893;44.316;0.092;2023-04-29T02:12:52;8.75;8.25;7.00
76784;PMS7003;66893;44.316;0.092;2023-04-29T02:15:18;10.50;10.25;8.75
76784;PMS7003;66893;44.316;0.092;2023-04-29T02:17:43;11.25;10.50;9.00
76784;PMS7003;66893;44.316;0.092;2023-04-29T02:20:10;9.50;9.50;8.00
76784;PMS7003;66893;44.316;0.092;2023-04-29T02:22:36;13.50;11.00;8.00
76784;PMS7003;66893;44.316;0.092;2023-04-29T02:25:02;10.50;10.25;8.00
76784;PMS7003;66893;44.316;0.092;2023-04-29T02:27:27;15.50;11.50;8.00
76784;PMS7003;66893;44.316;0.092;2023-04-29T02:29:52;12.00;10.50;8.75
76784;PMS7003;66893;44.316;0.092;2023-04-29T02:32:18;9.00;9.00;7.50
76784;PMS7003;66893;44.316;0.092;2023-04-29T02:34:46;12.25;11.25;9.00
76784;PMS7003;66893;44.316;0.092;2023-04-29T02:37:13;12.75;12.75;10.00
76784;PMS7003;66893;44.316;0.092;2023-04-29T02:39:39;10.25;10.25;8.00
76784;PMS7003;66893;44.316;0.092;2023-04-29T02:42:05;14.00;10.75;9.00
76784;PMS7003;66893;44.316;0.092;2023-04-29T02:44:30;14.75;11.00;8.25
76784;PMS7003;66893;44.316;0.092;2023-04-29T02:46:56;13.50;11.25;8.00
76784;PMS7003;66893;44.316;0.092;2023-04-29T02:49:22;12.00;9.00;8.00
76784;PMS7003;66893;44.316;0.092;2023-04-29T02:51:47;10.25;9.00;7.00
76784;PMS7003;66893;44.316;0.092;2023-04-29T02:54:14;11.25;11.25;9.00
76784;PMS7003;66893;44.316;0.092;2023-04-29T02:56:40;15.00;13.25;10.00
76784;PMS7003;66893;44.316;0.092;2023-04-29T02:59:06;12.25;10.25;8.00
76784;PMS7003;66893;44.316;0.092;2023-04-29T03:01:31;11.00;11.00;8.00
76784;PMS7003;66893;44.316;0.092;2023-04-29T03:03:57;14.75;10.00;8.00
76784;PMS7003;66893;44.316;0.092;2023-04-29T03:06:22;12.00;12.00;8.00
76784;PMS7003;66893;44.316;0.092;2023-04-29T03:08:48;11.00;11.00;8.75
76784;PMS7003;66893;44.316;0.092;2023-04-29T03:11:13;13.25;12.00;8.50
76784;PMS7003;66893;44.316;0.092;2023-04-29T03:13:38;11.00;11.00;7.00
76784;PMS7003;66893;44.316;0.092;2023-04-29T03:16:04;7.00;7.00;6.25
76784;PMS7003;66893;44.316;0.092;2023-04-29T03:18:30;16.75;12.75;9.25
76784;PMS7003;66893;44.316;0.092;2023-04-29T03:20:56;12.50;12.25;9.00
76784;PMS7003;66893;44.316;0.092;2023-04-29T03:23:22;12.50;12.00;9.00
76784;PMS7003;66893;44.316;0.092;2023-04-29T03:25:47;13.75;12.25;9.00
76784;PMS7003;66893;44.316;0.092;2023-04-29T03:28:13;10.25;10.25;8.25
76784;PMS7003;66893;44.316;0.092;2023-04-29T03:30:39;11.25;10.25;7.50
76784;PMS7003;66893;44.316;0.092;2023-04-29T03:33:05;10.75;9.75;7.00
76784;PMS7003;66893;44.316;0.092;2023-04-29T03:35:30;14.00;10.50;7.25
76784;PMS7003;66893;44.316;0.092;2023-04-29T03:37:56;12.00;11.25;7.50
76784;PMS7003;66893;44.316;0.092;2023-04-29T03:40:21;10.00;8.75;6.25
76784;PMS7003;66893;44.316;0.092;2023-04-29T03:42:47;12.50;12.50;9.50
76784;PMS7003;66893;44.316;0.092;2023-04-29T03:45:12;13.25;12.75;8.75
76784;PMS7003;66893;44.316;0.092;2023-04-29T03:47:38;12.00;11.00;9.00
76784;PMS7003;66893;44.316;0.092;2023-04-29T03:50:04;13.25;11.50;8.00
76784;PMS7003;66893;44.316;0.092;2023-04-29T03:52:31;15.50;12.50;8.50
76784;PMS7003;66893;44.316;0.092;2023-04-29T03:54:56;12.00;12.00;9.25
76784;PMS7003;66893;44.316;0.092;2023-04-29T03:57:22;12.25;11.25;7.25
76784;PMS7003;66893;44.316;0.092;2023-04-29T03:59:47;6.75;6.00;4.00
76784;PMS7003;66893;44.316;0.092;2023-04-29T04:02:14;10.25;9.00;7.00
76784;PMS7003;66893;44.316;0.092;2023-04-29T04:04:40;4.00;4.00;3.00
76784;PMS7003;66893;44.316;0.092;2023-04-29T04:07:06;15.00;10.50;8.75
76784;PMS7003;66893;44.316;0.092;2023-04-29T04:09:31;9.75;9.75;8.00
76784;PMS7003;66893;44.316;0.092;2023-04-29T04:11:57;7.00;7.00;5.00
76784;PMS7003;66893;44.316;0.092;2023-04-29T04:14:24;11.75;10.25;8.00
76784;PMS7003;66893;44.316;0.092;2023-04-29T04:16:49;8.25;7.75;7.25
76784;PMS7003;66893;44.316;0.092;2023-04-29T04:19:15;11.25;9.75;7.00
76784;PMS7003;66893;44.316;0.092;2023-04-29T04:21:40;12.75;11.25;8.75
76784;PMS7003;66893;44.316;0.092;2023-04-29T04:24:06;11.25;9.00;7.50
76784;PMS7003;66893;44.316;0.092;2023-04-29T04:26:32;8.50;8.50;7.00
76784;PMS7003;66893;44.316;0.092;2023-04-29T04:28:58;10.75;9.50;8.00
76784;PMS7003;66893;44.316;0.092;2023-04-29T04:31:23;10.25;10.25;8.00
76784;PMS7003;66893;44.316;0.092;2023-04-29T04:33:49;11.25;9.50;8.00
76784;PMS7003;66893;44.316;0.092;2023-04-29T04:36:15;14.00;9.25;7.00
76784;PMS7003;66893;44.316;0.092;2023-04-29T04:38:40;10.25;10.00;7.75
76784;PMS7003;66893;44.316;0.092;2023-04-29T04:41:06;8.50;8.50;7.00
76784;PMS7003;66893;44.316;0.092;2023-04-29T04:43:32;9.00;8.25;6.00
76784;PMS7003;66893;44.316;0.092;2023-04-29T04:45:57;10.00;10.00;7.50
76784;PMS7003;66893;44.316;0.092;2023-04-29T04:48:23;13.75;9.75;7.00
76784;PMS7003;66893;44.316;0.092;2023-04-29T04:50:48;10.50;9.75;7.25
76784;PMS7003;66893;44.316;0.092;2023-04-29T04:53:14;8.75;8.75;6.75
76784;PMS7003;66893;44.316;0.092;2023-04-29T04:55:39;9.50;7.50;6.00
76784;PMS7003;66893;44.316;0.092;2023-04-29T04:58:05;11.00;9.00;7.50
76784;PMS7003;66893;44.316;0.092;2023-04-29T05:00:30;12.00;11.00;8.25
76784;PMS7003;66893;44.316;0.092;2023-04-29T05:02:56;13.50;8.75;7.50
76784;PMS7003;66893;44.316;0.092;2023-04-29T05:05:22;8.75;8.75;6.75
76784;PMS7003;66893;44.316;0.092;2023-04-29T05:07:47;13.25;11.25;8.50
76784;PMS7003;66893;44.316;0.092;2023-04-29T05:10:13;5.25;5.25;4.25
76784;PMS7003;66893;44.316;0.092;2023-04-29T05:12:38;8.75;8.75;6.50
76784;PMS7003;66893;44.316;0.092;2023-04-29T05:15:04;8.75;8.75;7.00
76784;PMS7003;66893;44.316;0.092;2023-04-29T05:17:29;10.50;8.75;7.00
76784;PMS7003;66893;44.316;0.092;2023-04-29T05:19:55;8.75;8.75;7.00
76784;PMS7003;66893;44.316;0.092;2023-04-29T05:22:20;10.25;8.00;7.00
76784;PMS7003;66893;44.316;0.092;2023-04-29T05:24:46;10.25;9.00;7.00
76784;PMS7003;66893;44.316;0.092;2023-04-29T05:27:16;9.00;9.00;7.25
76784;PMS7003;66893;44.316;0.092;2023-04-29T05:29:42;10.75;8.75;6.75
76784;PMS7003;66893;44.316;0.092;2023-04-29T05:32:08;10.75;9.50;7.25
76784;PMS7003;66893;44.316;0.092;2023-04-29T05:34:34;11.25;11.00;7.00
76784;PMS7003;66893;44.316;0.092;2023-04-29T05:36:59;9.00;9.00;7.00
76784;PMS7003;66893;44.316;0.092;2023-04-29T05:39:24;11.00;9.25;7.00
76784;PMS7003;66893;44.316;0.092;2023-04-29T05:41:50;11.75;9.00;7.00
76784;PMS7003;66893;44.316;0.092;2023-04-29T05:44:16;6.75;6.75;6.00
76784;PMS7003;66893;44.316;0.092;2023-04-29T05:46:41;8.75;8.00;6.25
76784;PMS7003;66893;44.316;0.092;2023-04-29T05:49:07;10.50;9.00;7.75
76784;PMS7003;66893;44.316;0.092;2023-04-29T05:51:32;9.75;7.00;6.00
76784;PMS7003;66893;44.316;0.092;2023-04-29T05:53:58;11.50;8.00;6.00
76784;PMS7003;66893;44.316;0.092;2023-04-29T05:56:24;11.50;10.25;7.00
76784;PMS7003;66893;44.316;0.092;2023-04-29T05:58:49;9.00;8.50;7.00
76784;PMS7003;66893;44.316;0.092;2023-04-29T06:01:16;8.50;6.50;5.25
76784;PMS7003;66893;44.316;0.092;2023-04-29T06:03:41;9.00;7.50;5.25
76784;PMS7003;66893;44.316;0.092;2023-04-29T06:06:07;9.00;8.00;6.00
76784;PMS7003;66893;44.316;0.092;2023-04-29T06:08:33;8.00;8.00;6.25
76784;PMS7003;66893;44.316;0.092;2023-04-29T06:10:58;10.00;10.00;7.00
76784;PMS7003;66893;44.316;0.092;2023-04-29T06:13:24;9.75;8.00;5.25
76784;PMS7003;66893;44.316;0.092;2023-04-29T06:15:50;9.75;8.50;6.50
76784;PMS7003;66893;44.316;0.092;2023-04-29T06:18:15;9.75;7.00;6.00
76784;PMS7003;66893;44.316;0.092;2023-04-29T06:20:41;8.75;5.25;4.00
76784;PMS7003;66893;44.316;0.092;2023-04-29T06:23:06;9.25;8.00;6.25
76784;PMS7003;66893;44.316;0.092;2023-04-29T06:25:32;7.25;7.25;6.25
76784;PMS7003;66893;44.316;0.092;2023-04-29T06:27:58;7.75;7.75;5.75
76784;PMS7003;66893;44.316;0.092;2023-04-29T06:30:23;10.00;8.75;7.00
76784;PMS7003;66893;44.316;0.092;2023-04-29T06:32:50;10.25;9.00;6.75
76784;PMS7003;66893;44.316;0.092;2023-04-29T06:35:15;8.00;8.00;6.00
76784;PMS7003;66893;44.316;0.092;2023-04-29T06:37:41;8.25;8.25;7.00
76784;PMS7003;66893;44.316;0.092;2023-04-29T06:40:06;7.00;7.00;6.00
76784;PMS7003;66893;44.316;0.092;2023-04-29T06:42:32;8.00;8.00;6.25
76784;PMS7003;66893;44.316;0.092;2023-04-29T06:44:58;9.00;7.25;5.50
76784;PMS7003;66893;44.316;0.092;2023-04-29T06:47:24;8.00;8.00;5.75
76784;PMS7003;66893;44.316;0.092;2023-04-29T06:49:50;8.25;6.75;6.00
76784;PMS7003;66893;44.316;0.092;2023-04-29T06:52:16;8.25;8.25;5.50
76784;PMS7003;66893;44.316;0.092;2023-04-29T06:54:43;10.50;7.00;5.25
76784;PMS7003;66893;44.316;0.092;2023-04-29T06:57:08;9.50;7.25;6.00
76784;PMS7003;66893;44.316;0.092;2023-04-29T06:59:34;12.75;9.00;7.00
76784;PMS7003;66893;44.316;0.092;2023-04-29T07:01:59;8.75;6.75;5.50
76784;PMS7003;66893;44.316;0.092;2023-04-29T07:04:24;12.25;8.25;5.75
76784;PMS7003;66893;44.316;0.092;2023-04-29T07:06:50;12.25;10.00;7.00
76784;PMS7003;66893;44.316;0.092;2023-04-29T07:09:17;9.75;8.50;6.00
76784;PMS7003;66893;44.316;0.092;2023-04-29T07:11:43;11.50;8.75;6.75
76784;PMS7003;66893;44.316;0.092;2023-04-29T07:14:08;8.00;8.00;6.25
76784;PMS7003;66893;44.316;0.092;2023-04-29T07:16:34;8.25;7.75;5.25
76784;PMS7003;66893;44.316;0.092;2023-04-29T07:18:59;10.75;10.50;6.25
76784;PMS7003;66893;44.316;0.092;2023-04-29T07:21:25;7.25;6.50;5.00
76784;PMS7003;66893;44.316;0.092;2023-04-29T07:23:51;8.00;8.00;6.00
76784;PMS7003;66893;44.316;0.092;2023-04-29T07:26:16;10.00;8.00;6.00
76784;PMS7003;66893;44.316;0.092;2023-04-29T07:28:42;9.00;8.00;5.75
76784;PMS7003;66893;44.316;0.092;2023-04-29T07:31:08;6.50;6.25;5.00
76784;PMS7003;66893;44.316;0.092;2023-04-29T07:33:35;8.50;7.75;6.00
76784;PMS7003;66893;44.316;0.092;2023-04-29T07:36:01;9.25;8.25;6.25
76784;PMS7003;66893;44.316;0.092;2023-04-29T07:38:27;9.75;8.25;6.00
76784;PMS7003;66893;44.316;0.092;2023-04-29T07:40:53;10.50;9.25;7.00
76784;PMS7003;66893;44.316;0.092;2023-04-29T07:43:19;14.00;12.75;8.25
76784;PMS7003;66893;44.316;0.092;2023-04-29T07:45:45;14.25;11.50;8.00
76784;PMS7003;66893;44.316;0.092;2023-04-29T07:48:11;10.00;9.50;6.50
76784;PMS7003;66893;44.316;0.092;2023-04-29T07:50:37;10.00;10.00;7.00
76784;PMS7003;66893;44.316;0.092;2023-04-29T07:53:02;14.50;11.50;7.75
76784;PMS7003;66893;44.316;0.092;2023-04-29T07:55:28;15.75;12.25;8.00
76784;PMS7003;66893;44.316;0.092;2023-04-29T07:57:56;15.25;11.25;8.50
76784;PMS7003;66893;44.316;0.092;2023-04-29T08:00:22;11.75;11.75;7.00
76784;PMS7003;66893;44.316;0.092;2023-04-29T08:02:54;13.75;11.50;9.00
76784;PMS7003;66893;44.316;0.092;2023-04-29T08:05:21;11.00;10.25;6.50
76784;PMS7003;66893;44.316;0.092;2023-04-29T08:07:47;11.25;9.75;7.00
76784;PMS7003;66893;44.316;0.092;2023-04-29T08:10:14;15.25;13.00;8.75
76784;PMS7003;66893;44.316;0.092;2023-04-29T08:12:40;14.25;12.25;8.00
76784;PMS7003;66893;44.316;0.092;2023-04-29T08:15:05;16.75;14.25;10.00
76784;PMS7003;66893;44.316;0.092;2023-04-29T08:17:32;14.50;11.25;8.25
76784;PMS7003;66893;44.316;0.092;2023-04-29T08:19:57;12.75;11.00;8.00
76784;PMS7003;66893;44.316;0.092;2023-04-29T08:22:22;12.75;10.50;8.25
76784;PMS7003;66893;44.316;0.092;2023-04-29T08:24:48;14.50;12.00;8.00
76784;PMS7003;66893;44.316;0.092;2023-04-29T08:27:13;14.00;12.25;8.75
76784;PMS7003;66893;44.316;0.092;2023-04-29T08:29:39;15.00;10.75;8.00
76784;PMS7003;66893;44.316;0.092;2023-04-29T08:32:05;14.50;11.50;8.25
76784;PMS7003;66893;44.316;0.092;2023-04-29T08:34:31;13.50;12.50;8.00
76784;PMS7003;66893;44.316;0.092;2023-04-29T08:36:57;16.75;13.25;8.00
76784;PMS7003;66893;44.316;0.092;2023-04-29T08:39:23;14.00;12.75;8.50
76784;PMS7003;66893;44.316;0.092;2023-04-29T08:41:49;13.25;11.75;7.25
76784;PMS7003;66893;44.316;0.092;2023-04-29T08:44:16;12.00;10.75;7.50
76784;PMS7003;66893;44.316;0.092;2023-04-29T08:46:42;13.50;12.50;8.25
76784;PMS7003;66893;44.316;0.092;2023-04-29T08:49:10;11.00;10.75;7.00
76784;PMS7003;66893;44.316;0.092;2023-04-29T08:51:36;19.00;14.25;10.25
76784;PMS7003;66893;44.316;0.092;2023-04-29T08:54:02;17.50;13.50;9.50
76784;PMS7003;66893;44.316;0.092;2023-04-29T08:56:27;19.75;13.25;7.25
76784;PMS7003;66893;44.316;0.092;2023-04-29T08:58:55;15.75;13.25;9.25
76784;PMS7003;66893;44.316;0.092;2023-04-29T09:01:24;11.50;11.50;8.00
76784;PMS7003;66893;44.316;0.092;2023-04-29T09:06:20;11.00;8.00;7.00
76784;PMS7003;66893;44.316;0.092;2023-04-29T09:08:46;12.75;8.75;7.00
76784;PMS7003;66893;44.316;0.092;2023-04-29T09:11:12;12.25;11.00;7.75
76784;PMS7003;66893;44.316;0.092;2023-04-29T09:13:39;18.75;13.25;9.25
76784;PMS7003;66893;44.316;0.092;2023-04-29T09:16:09;13.25;10.50;7.00
76784;PMS7003;66893;44.316;0.092;2023-04-29T09:18:46;15.75;14.25;8.75
76784;PMS7003;66893;44.316;0.092;2023-04-29T09:24:00;15.75;15.00;10.00
76784;PMS7003;66893;44.316;0.092;2023-04-29T09:26:27;17.50;13.75;9.25
76784;PMS7003;66893;44.316;0.092;2023-04-29T09:29:13;15.25;14.50;9.50
76784;PMS7003;66893;44.316;0.092;2023-04-29T09:31:40;15.25;15.00;10.50
76784;PMS7003;66893;44.316;0.092;2023-04-29T09:34:06;16.75;15.00;11.00
76784;PMS7003;66893;44.316;0.092;2023-04-29T09:36:42;21.00;16.75;10.25
76784;PMS7003;66893;44.316;0.092;2023-04-29T09:39:16;17.25;15.00;10.50
76784;PMS7003;66893;44.316;0.092;2023-04-29T09:44:17;20.25;15.75;9.75
76784;PMS7003;66893;44.316;0.092;2023-04-29T09:49:53;20.50;16.75;11.25
76784;PMS7003;66893;44.316;0.092;2023-04-29T09:52:39;15.50;13.00;9.25
76784;PMS7003;66893;44.316;0.092;2023-04-29T09:55:08;20.50;16.00;10.75
76784;PMS7003;66893;44.316;0.092;2023-04-29T09:57:40;15.00;13.25;8.50
76784;PMS7003;66893;44.316;0.092;2023-04-29T10:00:06;15.50;12.50;9.25
76784;PMS7003;66893;44.316;0.092;2023-04-29T10:02:32;11.50;11.50;9.25
76784;PMS7003;66893;44.316;0.092;2023-04-29T10:04:57;15.25;12.75;9.25
76784;PMS7003;66893;44.316;0.092;2023-04-29T10:07:23;13.50;10.75;9.50
76784;PMS7003;66893;44.316;0.092;2023-04-29T10:09:51;10.00;10.00;8.00
76784;PMS7003;66893;44.316;0.092;2023-04-29T10:12:18;12.75;12.50;8.25
76784;PMS7003;66893;44.316;0.092;2023-04-29T10:15:09;12.25;11.50;8.00
76784;PMS7003;66893;44.316;0.092;2023-04-29T10:17:41;9.00;9.00;6.50
76784;PMS7003;66893;44.316;0.092;2023-04-29T10:20:10;12.25;8.50;6.75
76784;PMS7003;66893;44.316;0.092;2023-04-29T10:22:45;12.00;11.25;8.00
76784;PMS7003;66893;44.316;0.092;2023-04-29T10:25:14;11.25;10.25;7.50
76784;PMS7003;66893;44.316;0.092;2023-04-29T10:27:41;16.00;12.75;8.25
76784;PMS7003;66893;44.316;0.092;2023-04-29T10:30:08;10.75;10.50;7.75
76784;PMS7003;66893;44.316;0.092;2023-04-29T10:32:38;10.25;10.00;6.00
76784;PMS7003;66893;44.316;0.092;2023-04-29T10:35:07;12.50;11.25;8.00
76784;PMS7003;66893;44.316;0.092;2023-04-29T10:37:34;12.00;10.75;7.25
76784;PMS7003;66893;44.316;0.092;2023-04-29T10:50:33;19.50;12.75;9.25
76784;PMS7003;66893;44.316;0.092;2023-04-29T10:53:04;12.50;11.75;9.50
76784;PMS7003;66893;44.316;0.092;2023-04-29T10:55:30;13.50;13.25;10.25
76784;PMS7003;66893;44.316;0.092;2023-04-29T10:57:56;15.25;12.50;9.75
76784;PMS7003;66893;44.316;0.092;2023-04-29T11:00:25;11.25;11.25;8.75
76784;PMS7003;66893;44.316;0.092;2023-04-29T11:02:52;8.25;8.25;7.00
76784;PMS7003;66893;44.316;0.092;2023-04-29T11:05:28;12.00;11.00;7.50
76784;PMS7003;66893;44.316;0.092;2023-04-29T11:10:35;11.75;10.75;7.50
76784;PMS7003;66893;44.316;0.092;2023-04-29T11:13:20;10.00;9.00;6.00
76784;PMS7003;66893;44.316;0.092;2023-04-29T11:15:50;10.25;8.25;6.75
76784;PMS7003;66893;44.316;0.092;2023-04-29T11:18:16;10.75;9.50;6.75
76784;PMS7003;66893;44.316;0.092;2023-04-29T11:23:30;10.00;9.75;7.00
76784;PMS7003;66893;44.316;0.092;2023-04-29T11:25:56;10.00;8.50;6.00
76784;PMS7003;66893;44.316;0.092;2023-04-29T11:28:23;13.00;10.50;7.25
76784;PMS7003;66893;44.316;0.092;2023-04-29T11:30:49;10.50;8.25;6.00
76784;PMS7003;66893;44.316;0.092;2023-04-29T11:33:15;9.75;9.75;7.00
76784;PMS7003;66893;44.316;0.092;2023-04-29T11:35:41;3.50;3.50;2.50
76784;PMS7003;66893;44.316;0.092;2023-04-29T11:38:08;8.75;8.75;7.00
76784;PMS7003;66893;44.316;0.092;2023-04-29T11:40:33;6.50;5.00;4.00
76784;PMS7003;66893;44.316;0.092;2023-04-29T11:42:59;12.75;10.00;6.00
76784;PMS7003;66893;44.316;0.092;2023-04-29T11:45:25;11.25;9.50;6.00
76784;PMS7003;66893;44.316;0.092;2023-04-29T11:47:50;10.50;7.50;6.00
76784;PMS7003;66893;44.316;0.092;2023-04-29T11:50:16;10.50;10.50;7.00
76784;PMS7003;66893;44.316;0.092;2023-04-29T11:52:44;8.75;8.00;6.75
76784;PMS7003;66893;44.316;0.092;2023-04-29T11:55:11;7.25;7.00;5.75
76784;PMS7003;66893;44.316;0.092;2023-04-29T11:57:37;9.75;9.75;8.50
76784;PMS7003;66893;44.316;0.092;2023-04-29T12:00:12;10.25;7.00;6.75
76784;PMS7003;66893;44.316;0.092;2023-04-29T12:02:37;11.50;10.75;8.00
76784;PMS7003;66893;44.316;0.092;2023-04-29T12:05:06;11.25;11.00;7.00
76784;PMS7003;66893;44.316;0.092;2023-04-29T12:07:33;10.50;9.00;6.25
76784;PMS7003;66893;44.316;0.092;2023-04-29T12:09:59;8.50;8.50;6.00
76784;PMS7003;66893;44.316;0.092;2023-04-29T12:12:25;7.25;7.25;6.25
76784;PMS7003;66893;44.316;0.092;2023-04-29T12:14:52;7.25;6.50;5.75
76784;PMS7003;66893;44.316;0.092;2023-04-29T12:17:18;13.25;9.00;7.50
76784;PMS7003;66893;44.316;0.092;2023-04-29T12:19:44;8.75;7.25;5.25
76784;PMS7003;66893;44.316;0.092;2023-04-29T12:22:10;10.25;10.00;6.00
76784;PMS7003;66893;44.316;0.092;2023-04-29T12:24:36;7.50;7.25;6.25
76784;PMS7003;66893;44.316;0.092;2023-04-29T12:27:03;10.75;8.75;7.00
76784;PMS7003;66893;44.316;0.092;2023-04-29T12:29:32;5.75;5.75;4.25
76784;PMS7003;66893;44.316;0.092;2023-04-29T12:31:58;7.75;7.75;6.50
76784;PMS7003;66893;44.316;0.092;2023-04-29T12:34:27;9.25;8.75;6.00
76784;PMS7003;66893;44.316;0.092;2023-04-29T12:37:00;10.50;8.00;6.50
76784;PMS7003;66893;44.316;0.092;2023-04-29T12:39:26;7.00;7.00;6.00
76784;PMS7003;66893;44.316;0.092;2023-04-29T12:41:58;10.25;9.00;7.00
76784;PMS7003;66893;44.316;0.092;2023-04-29T12:44:25;9.00;8.75;6.50
76784;PMS7003;66893;44.316;0.092;2023-04-29T12:47:04;10.50;8.00;6.25
76784;PMS7003;66893;44.316;0.092;2023-04-29T12:49:32;9.00;8.50;7.50
76784;PMS7003;66893;44.316;0.092;2023-04-29T12:51:58;7.00;7.00;4.50
76784;PMS7003;66893;44.316;0.092;2023-04-29T12:54:23;8.50;7.00;6.00
76784;PMS7003;66893;44.316;0.092;2023-04-29T12:56:49;8.00;8.00;5.50
76784;PMS7003;66893;44.316;0.092;2023-04-29T12:59:15;8.75;6.75;5.25
76784;PMS7003;66893;44.316;0.092;2023-04-29T13:01:41;7.50;7.00;5.00
76784;PMS7003;66893;44.316;0.092;2023-04-29T13:04:06;6.25;6.25;4.50
76784;PMS7003;66893;44.316;0.092;2023-04-29T13:06:33;8.00;8.00;5.75
76784;PMS7003;66893;44.316;0.092;2023-04-29T13:09:03;6.25;6.25;6.00
76784;PMS7003;66893;44.316;0.092;2023-04-29T13:11:29;6.25;6.25;5.00
76784;PMS7003;66893;44.316;0.092;2023-04-29T13:13:55;9.00;8.00;6.00
76784;PMS7003;66893;44.316;0.092;2023-04-29T13:16:20;8.75;6.75;5.50
76784;PMS7003;66893;44.316;0.092;2023-04-29T13:18:47;8.25;6.50;5.00
76784;PMS7003;66893;44.316;0.092;2023-04-29T13:21:13;7.00;7.00;5.00
76784;PMS7003;66893;44.316;0.092;2023-04-29T13:23:38;10.00;7.00;6.00
76784;PMS7003;66893;44.316;0.092;2023-04-29T13:26:04;5.25;5.25;4.00
76784;PMS7003;66893;44.316;0.092;2023-04-29T13:28:29;9.00;6.00;4.25
76784;PMS7003;66893;44.316;0.092;2023-04-29T13:30:55;5.75;5.75;4.00
76784;PMS7003;66893;44.316;0.092;2023-04-29T13:33:21;6.00;6.00;5.00
76784;PMS7003;66893;44.316;0.092;2023-04-29T13:35:47;5.00;5.00;5.00
76784;PMS7003;66893;44.316;0.092;2023-04-29T13:38:12;5.00;5.00;4.75
76784;PMS7003;66893;44.316;0.092;2023-04-29T13:40:38;4.25;4.25;4.00
76784;PMS7003;66893;44.316;0.092;2023-04-29T13:43:03;7.75;7.00;5.25
76784;PMS7003;66893;44.316;0.092;2023-04-29T13:45:30;6.25;6.25;5.00
76784;PMS7003;66893;44.316;0.092;2023-04-29T13:47:57;7.25;7.00;5.25
76784;PMS7003;66893;44.316;0.092;2023-04-29T13:50:23;6.75;6.75;4.75
76784;PMS7003;66893;44.316;0.092;2023-04-29T13:52:48;8.25;7.00;5.25
76784;PMS7003;66893;44.316;0.092;2023-04-29T13:55:13;5.75;5.75;4.50
76784;PMS7003;66893;44.316;0.092;2023-04-29T13:57:39;4.50;4.50;4.00
76784;PMS7003;66893;44.316;0.092;2023-04-29T14:00:05;5.00;5.00;5.00
76784;PMS7003;66893;44.316;0.092;2023-04-29T14:02:33;6.00;6.00;5.00
76784;PMS7003;66893;44.316;0.092;2023-04-29T14:04:58;6.25;5.25;4.25
76784;PMS7003;66893;44.316;0.092;2023-04-29T14:07:24;5.25;5.25;4.00
76784;PMS7003;66893;44.316;0.092;2023-04-29T14:09:49;5.50;4.50;3.75
76784;PMS7003;66893;44.316;0.092;2023-04-29T14:12:15;7.00;6.00;5.00
76784;PMS7003;66893;44.316;0.092;2023-04-29T14:14:41;4.00;2.75;2.75
76784;PMS7003;66893;44.316;0.092;2023-04-29T14:17:06;4.50;4.50;3.00
76784;PMS7003;66893;44.316;0.092;2023-04-29T14:19:32;5.75;4.75;4.00
76784;PMS7003;66893;44.316;0.092;2023-04-29T14:21:58;4.00;4.00;3.00
76784;PMS7003;66893;44.316;0.092;2023-04-29T14:24:23;4.00;4.00;3.50
76784;PMS7003;66893;44.316;0.092;2023-04-29T14:26:49;4.75;4.75;4.00
76784;PMS7003;66893;44.316;0.092;2023-04-29T14:29:14;5.00;5.00;4.00
76784;PMS7003;66893;44.316;0.092;2023-04-29T14:31:39;3.00;3.00;2.00
76784;PMS7003;66893;44.316;0.092;2023-04-29T14:34:05;4.50;4.00;3.00
76784;PMS7003;66893;44.316;0.092;2023-04-29T14:36:31;4.00;4.00;4.00
76784;PMS7003;66893;44.316;0.092;2023-04-29T14:38:57;4.00;3.00;3.00
76784;PMS7003;66893;44.316;0.092;2023-04-29T14:41:22;5.00;3.25;3.00
76784;PMS7003;66893;44.316;0.092;2023-04-29T14:43:48;4.00;4.00;3.00
76784;PMS7003;66893;44.316;0.092;2023-04-29T14:46:13;1.75;1.75;1.00